Terminal Aerodrome Forecast
Issued by NWS Bismarck, ND

Home | Current Version | Previous Version | Graphics & Text | Print | Product List | Glossary On
Versions: 1 2 3 4 5 6 7 8 9 10 11 12 13 14 15
827
FTUS43 KBIS 242322
TAFISN
TAF
KISN 242322Z 2500/2524 11016KT P6SM SCT130
     FM250400 14011KT P6SM BKN200 WS020/16040KT
     FM251000 16008KT P6SM BKN200 WS020/19040KT
     FM251300 17007KT P6SM BKN150=

USA.gov is the U.S. government's official web portal to all federal, state and local government web resources and services.